sensor_id;sensor_type;location;lat;lon;timestamp;pressure;altitude;pressure_sealevel;temperature;humidity
48364;BME280;34170;54.364;18.582;2023-05-02T00:01:46;99935.09;;;12.57;45.33
48364;BME280;34170;54.364;18.582;2023-05-02T00:04:14;99939.00;;;12.71;45.09
48364;BME280;34170;54.364;18.582;2023-05-02T00:06:42;99940.84;;;12.54;45.84
48364;BME280;34170;54.364;18.582;2023-05-02T00:09:12;99924.44;;;12.39;45.60
48364;BME280;34170;54.364;18.582;2023-05-02T00:11:41;99938.31;;;12.61;45.48
48364;BME280;34170;54.364;18.582;2023-05-02T00:14:09;99933.06;;;12.43;46.02
48364;BME280;34170;54.364;18.582;2023-05-02T00:16:37;99937.97;;;12.47;45.89
48364;BME280;34170;54.364;18.582;2023-05-02T00:19:04;99934.06;;;12.25;46.59
48364;BME280;34170;54.364;18.582;2023-05-02T00:21:31;99933.53;;;11.87;48.23
48364;BME280;34170;54.364;18.582;2023-05-02T00:23:59;99894.31;;;11.85;47.59
48364;BME280;34170;54.364;18.582;2023-05-02T00:26:26;99891.19;;;11.63;48.38
48364;BME280;34170;54.364;18.582;2023-05-02T00:28:54;99922.69;;;11.97;47.94
48364;BME280;34170;54.364;18.582;2023-05-02T00:31:22;99904.81;;;11.96;47.78
48364;BME280;34170;54.364;18.582;2023-05-02T00:33:49;99919.38;;;11.77;48.43
48364;BME280;34170;54.364;18.582;2023-05-02T00:36:18;99915.34;;;11.89;48.38
48364;BME280;34170;54.364;18.582;2023-05-02T00:38:45;99881.13;;;11.31;49.92
48364;BME280;34170;54.364;18.582;2023-05-02T00:41:13;99872.09;;;11.48;49.52
48364;BME280;34170;54.364;18.582;2023-05-02T00:43:42;99908.56;;;11.69;49.39
48364;BME280;34170;54.364;18.582;2023-05-02T00:46:10;99859.19;;;11.60;49.26
48364;BME280;34170;54.364;18.582;2023-05-02T00:48:41;99900.38;;;11.87;49.01
48364;BME280;34170;54.364;18.582;2023-05-02T00:51:08;99897.00;;;11.85;49.04
48364;BME280;34170;54.364;18.582;2023-05-02T00:53:39;99868.28;;;11.59;49.33
48364;BME280;34170;54.364;18.582;2023-05-02T00:56:07;99859.16;;;11.52;49.31
48364;BME280;34170;54.364;18.582;2023-05-02T00:58:37;99872.50;;;11.61;49.66
48364;BME280;34170;54.364;18.582;2023-05-02T01:06:51;99884.28;;;11.26;51.38
48364;BME280;34170;54.364;18.582;2023-05-02T01:09:52;99884.78;;;11.56;50.57
48364;BME280;34170;54.364;18.582;2023-05-02T01:12:34;99886.38;;;11.40;51.30
48364;BME280;34170;54.364;18.582;2023-05-02T01:15:05;99875.22;;;11.27;52.44
48364;BME280;34170;54.364;18.582;2023-05-02T01:17:34;99887.13;;;11.24;52.93
48364;BME280;34170;54.364;18.582;2023-05-02T01:20:05;99853.75;;;11.09;52.70
48364;BME280;34170;54.364;18.582;2023-05-02T01:22:37;99878.94;;;11.08;53.36
48364;BME280;34170;54.364;18.582;2023-05-02T01:30:23;99884.44;;;11.24;51.81
48364;BME280;34170;54.364;18.582;2023-05-02T01:32:54;99851.34;;;11.06;51.94
48364;BME280;34170;54.364;18.582;2023-05-02T01:35:24;99875.81;;;11.21;52.18
48364;BME280;34170;54.364;18.582;2023-05-02T01:37:54;99849.81;;;11.03;51.87
48364;BME280;34170;54.364;18.582;2023-05-02T01:40:25;99871.19;;;11.31;51.41
48364;BME280;34170;54.364;18.582;2023-05-02T01:42:53;99858.59;;;11.40;51.10
48364;BME280;34170;54.364;18.582;2023-05-02T01:45:22;99838.34;;;11.28;50.62
48364;BME280;34170;54.364;18.582;2023-05-02T01:47:51;99858.34;;;11.59;50.01
48364;BME280;34170;54.364;18.582;2023-05-02T01:50:22;99823.53;;;11.66;49.29
48364;BME280;34170;54.364;18.582;2023-05-02T01:52:52;99847.84;;;11.82;49.26
48364;BME280;34170;54.364;18.582;2023-05-02T01:55:20;99853.09;;;11.92;48.75
48364;BME280;34170;54.364;18.582;2023-05-02T01:57:49;99844.00;;;12.01;48.66
48364;BME280;34170;54.364;18.582;2023-05-02T02:00:19;99818.34;;;11.89;48.11
48364;BME280;34170;54.364;18.582;2023-05-02T02:02:50;99851.44;;;12.16;47.56
48364;BME280;34170;54.364;18.582;2023-05-02T02:05:18;99822.91;;;11.89;48.19
48364;BME280;34170;54.364;18.582;2023-05-02T02:07:48;99846.94;;;12.16;47.59
48364;BME280;34170;54.364;18.582;2023-05-02T02:10:17;99817.59;;;11.97;47.60
48364;BME280;34170;54.364;18.582;2023-05-02T02:12:51;99834.63;;;12.22;47.46
48364;BME280;34170;54.364;18.582;2023-05-02T02:15:27;99833.09;;;12.11;47.54
48364;BME280;34170;54.364;18.582;2023-05-02T02:18:06;99839.00;;;12.15;47.73
48364;BME280;34170;54.364;18.582;2023-05-02T02:20:36;99825.00;;;12.11;47.95
48364;BME280;34170;54.364;18.582;2023-05-02T02:23:06;99807.81;;;11.96;48.08
48364;BME280;34170;54.364;18.582;2023-05-02T02:25:34;99835.47;;;12.14;47.85
48364;BME280;34170;54.364;18.582;2023-05-02T02:28:02;99833.44;;;12.16;47.92
48364;BME280;34170;54.364;18.582;2023-05-02T02:30:30;99817.75;;;12.12;47.91
48364;BME280;34170;54.364;18.582;2023-05-02T02:32:57;99797.88;;;12.05;47.89
48364;BME280;34170;54.364;18.582;2023-05-02T02:35:30;99832.75;;;12.23;48.15
48364;BME280;34170;54.364;18.582;2023-05-02T02:38:20;99830.25;;;12.29;47.81
48364;BME280;34170;54.364;18.582;2023-05-02T02:40:55;99806.16;;;12.11;47.61
48364;BME280;34170;54.364;18.582;2023-05-02T02:43:31;99824.16;;;12.19;47.68
48364;BME280;34170;54.364;18.582;2023-05-02T02:49:00;99824.50;;;12.08;47.96
48364;BME280;34170;54.364;18.582;2023-05-02T02:51:45;99829.22;;;12.14;48.40
48364;BME280;34170;54.364;18.582;2023-05-02T02:57:00;99827.03;;;12.09;48.03
48364;BME280;34170;54.364;18.582;2023-05-02T02:59:34;99814.72;;;11.98;47.90
48364;BME280;34170;54.364;18.582;2023-05-02T03:02:07;99831.56;;;12.00;48.07
48364;BME280;34170;54.364;18.582;2023-05-02T03:04:39;99822.31;;;11.95;48.19
48364;BME280;34170;54.364;18.582;2023-05-02T03:07:08;99816.91;;;12.03;48.14
48364;BME280;34170;54.364;18.582;2023-05-02T03:09:46;99775.09;;;11.82;47.99
48364;BME280;34170;54.364;18.582;2023-05-02T03:12:19;99813.28;;;11.78;48.63
48364;BME280;34170;54.364;18.582;2023-05-02T03:14:48;99818.25;;;11.99;48.21
48364;BME280;34170;54.364;18.582;2023-05-02T03:17:16;99807.31;;;12.00;48.38
48364;BME280;34170;54.364;18.582;2023-05-02T03:19:45;99812.97;;;11.89;48.68
48364;BME280;34170;54.364;18.582;2023-05-02T03:22:13;99803.59;;;12.01;48.31
48364;BME280;34170;54.364;18.582;2023-05-02T03:24:40;99817.25;;;12.25;47.89
48364;BME280;34170;54.364;18.582;2023-05-02T03:27:10;99827.38;;;12.14;47.80
48364;BME280;34170;54.364;18.582;2023-05-02T03:29:41;99815.59;;;12.24;47.65
48364;BME280;34170;54.364;18.582;2023-05-02T03:32:10;99822.16;;;12.13;47.88
48364;BME280;34170;54.364;18.582;2023-05-02T03:34:39;99818.97;;;12.26;47.32
48364;BME280;34170;54.364;18.582;2023-05-02T03:37:08;99772.09;;;12.10;47.42
48364;BME280;34170;54.364;18.582;2023-05-02T03:39:36;99785.41;;;12.12;47.44
48364;BME280;34170;54.364;18.582;2023-05-02T03:42:04;99831.44;;;12.43;47.13
48364;BME280;34170;54.364;18.582;2023-05-02T03:44:31;99791.69;;;12.29;47.25
48364;BME280;34170;54.364;18.582;2023-05-02T03:46:59;99789.81;;;12.29;47.07
48364;BME280;34170;54.364;18.582;2023-05-02T03:49:27;99818.47;;;12.47;47.06
48364;BME280;34170;54.364;18.582;2023-05-02T03:51:55;99789.78;;;12.21;47.11
48364;BME280;34170;54.364;18.582;2023-05-02T03:54:31;99820.28;;;12.13;47.73
48364;BME280;34170;54.364;18.582;2023-05-02T03:56:59;99821.84;;;12.49;46.69
48364;BME280;34170;54.364;18.582;2023-05-02T03:59:33;99832.75;;;12.55;46.43
48364;BME280;34170;54.364;18.582;2023-05-02T04:02:08;99824.34;;;12.67;46.20
48364;BME280;34170;54.364;18.582;2023-05-02T04:04:42;99836.13;;;12.90;45.92
48364;BME280;34170;54.364;18.582;2023-05-02T04:07:12;99827.66;;;13.02;45.58
48364;BME280;34170;54.364;18.582;2023-05-02T04:09:48;99802.72;;;12.83;45.62
48364;BME280;34170;54.364;18.582;2023-05-02T04:12:16;99828.69;;;12.92;45.77
48364;BME280;34170;54.364;18.582;2023-05-02T04:14:47;99789.25;;;12.75;45.48
48364;BME280;34170;54.364;18.582;2023-05-02T04:17:15;99809.63;;;12.94;45.42
48364;BME280;34170;54.364;18.582;2023-05-02T04:19:46;99803.91;;;12.89;45.64
48364;BME280;34170;54.364;18.582;2023-05-02T04:22:14;99800.53;;;12.87;45.23
48364;BME280;34170;54.364;18.582;2023-05-02T04:24:46;99829.50;;;13.01;45.44
48364;BME280;34170;54.364;18.582;2023-05-02T04:27:14;99836.72;;;13.17;45.60
48364;BME280;34170;54.364;18.582;2023-05-02T04:29:47;99843.00;;;13.01;45.93
48364;BME280;34170;54.364;18.582;2023-05-02T04:32:15;99806.91;;;13.02;44.91
48364;BME280;34170;54.364;18.582;2023-05-02T04:34:43;99849.53;;;13.31;45.13
48364;BME280;34170;54.364;18.582;2023-05-02T04:37:11;99844.00;;;13.08;45.72
48364;BME280;34170;54.364;18.582;2023-05-02T04:39:39;99849.53;;;13.31;45.22
48364;BME280;34170;54.364;18.582;2023-05-02T04:42:12;99850.31;;;13.48;44.61
48364;BME280;34170;54.364;18.582;2023-05-02T04:44:48;99819.94;;;13.46;44.10
48364;BME280;34170;54.364;18.582;2023-05-02T04:47:16;99821.22;;;13.67;43.68
48364;BME280;34170;54.364;18.582;2023-05-02T04:49:44;99839.53;;;14.34;42.77
48364;BME280;34170;54.364;18.582;2023-05-02T04:52:12;99844.38;;;14.85;41.14
48364;BME280;34170;54.364;18.582;2023-05-02T04:54:39;99821.53;;;15.02;40.85
48364;BME280;34170;54.364;18.582;2023-05-02T04:57:07;99844.38;;;15.89;39.18
48364;BME280;34170;54.364;18.582;2023-05-02T04:59:40;99844.28;;;16.62;37.67
48364;BME280;34170;54.364;18.582;2023-05-02T05:02:08;99853.16;;;18.17;34.85
48364;BME280;34170;54.364;18.582;2023-05-02T05:04:39;99851.13;;;18.46;34.13
48364;BME280;34170;54.364;18.582;2023-05-02T05:07:07;99851.13;;;18.66;33.55
48364;BME280;34170;54.364;18.582;2023-05-02T05:09:35;99861.78;;;18.41;33.77
48364;BME280;34170;54.364;18.582;2023-05-02T05:12:02;99853.69;;;17.86;35.14
48364;BME280;34170;54.364;18.582;2023-05-02T05:14:33;99853.06;;;17.14;35.85
48364;BME280;34170;54.364;18.582;2023-05-02T05:17:01;99849.38;;;16.50;37.23
48364;BME280;34170;54.364;18.582;2023-05-02T05:19:28;99859.59;;;16.48;37.39
48364;BME280;34170;54.364;18.582;2023-05-02T05:21:56;99854.31;;;16.62;37.18
48364;BME280;34170;54.364;18.582;2023-05-02T05:24:24;99855.94;;;17.06;36.46
48364;BME280;34170;54.364;18.582;2023-05-02T05:26:54;99859.03;;;16.81;37.01
48364;BME280;34170;54.364;18.582;2023-05-02T05:29:22;99829.22;;;16.59;37.08
48364;BME280;34170;54.364;18.582;2023-05-02T05:31:49;99844.16;;;16.92;36.50
48364;BME280;34170;54.364;18.582;2023-05-02T05:34:19;99843.16;;;18.51;34.85
48364;BME280;34170;54.364;18.582;2023-05-02T05:36:48;99869.19;;;20.69;30.66
48364;BME280;34170;54.364;18.582;2023-05-02T05:39:16;99848.13;;;22.13;29.36
48364;BME280;34170;54.364;18.582;2023-05-02T05:41:47;99875.22;;;21.47;29.05
48364;BME280;34170;54.364;18.582;2023-05-02T05:44:14;99810.38;;;19.51;31.67
48364;BME280;34170;54.364;18.582;2023-05-02T05:46:43;99882.38;;;18.97;32.74
48364;BME280;34170;54.364;18.582;2023-05-02T05:49:11;99874.63;;;18.94;33.37
48364;BME280;34170;54.364;18.582;2023-05-02T05:51:41;99860.13;;;17.85;34.95
48364;BME280;34170;54.364;18.582;2023-05-02T05:54:08;99855.53;;;17.09;36.37
48364;BME280;34170;54.364;18.582;2023-05-02T05:56:37;99872.59;;;16.96;37.18
48364;BME280;34170;54.364;18.582;2023-05-02T05:59:09;99885.41;;;17.09;37.14
48364;BME280;34170;54.364;18.582;2023-05-02T06:01:36;99882.19;;;16.77;37.45
48364;BME280;34170;54.364;18.582;2023-05-02T06:04:05;99894.34;;;16.59;38.28
48364;BME280;34170;54.364;18.582;2023-05-02T06:06:36;99885.25;;;16.24;39.04
48364;BME280;34170;54.364;18.582;2023-05-02T06:09:04;99889.13;;;16.00;39.68
48364;BME280;34170;54.364;18.582;2023-05-02T06:11:32;99883.44;;;15.95;39.37
48364;BME280;34170;54.364;18.582;2023-05-02T06:14:00;99870.25;;;16.07;39.22
48364;BME280;34170;54.364;18.582;2023-05-02T06:16:27;99894.69;;;15.62;40.56
48364;BME280;34170;54.364;18.582;2023-05-02T06:18:55;99892.91;;;15.69;40.53
48364;BME280;34170;54.364;18.582;2023-05-02T06:21:22;99864.56;;;15.27;41.30
48364;BME280;34170;54.364;18.582;2023-05-02T06:23:50;99894.56;;;15.70;40.44
48364;BME280;34170;54.364;18.582;2023-05-02T06:26:18;99905.59;;;15.24;41.79
48364;BME280;34170;54.364;18.582;2023-05-02T06:28:45;99886.19;;;15.65;40.90
48364;BME280;34170;54.364;18.582;2023-05-02T06:31:12;99897.03;;;15.65;40.92
48364;BME280;34170;54.364;18.582;2023-05-02T06:33:40;99887.75;;;15.44;41.16
48364;BME280;34170;54.364;18.582;2023-05-02T06:36:08;99916.25;;;16.00;40.39
48364;BME280;34170;54.364;18.582;2023-05-02T06:38:36;99898.13;;;15.71;41.23
48364;BME280;34170;54.364;18.582;2023-05-02T06:41:03;99921.63;;;16.15;40.46
48364;BME280;34170;54.364;18.582;2023-05-02T06:43:31;99925.22;;;15.56;42.32
48364;BME280;34170;54.364;18.582;2023-05-02T06:45:59;99930.03;;;15.84;41.91
48364;BME280;34170;54.364;18.582;2023-05-02T06:48:27;99929.16;;;15.98;41.63
48364;BME280;34170;54.364;18.582;2023-05-02T06:50:54;99929.25;;;15.90;41.84
48364;BME280;34170;54.364;18.582;2023-05-02T06:53:22;99936.03;;;16.30;41.35
48364;BME280;34170;54.364;18.582;2023-05-02T06:55:49;99934.50;;;15.91;42.05
48364;BME280;34170;54.364;18.582;2023-05-02T06:58:17;99931.66;;;16.14;41.33
48364;BME280;34170;54.364;18.582;2023-05-02T07:00:44;99923.84;;;16.05;41.63
48364;BME280;34170;54.364;18.582;2023-05-02T07:03:12;99947.34;;;16.34;41.47
48364;BME280;34170;54.364;18.582;2023-05-02T07:05:39;99946.00;;;15.78;42.59
48364;BME280;34170;54.364;18.582;2023-05-02T07:08:07;99939.38;;;15.96;42.30
48364;BME280;34170;54.364;18.582;2023-05-02T07:10:35;99957.28;;;16.27;41.67
48364;BME280;34170;54.364;18.582;2023-05-02T07:13:03;99949.25;;;16.04;42.19
48364;BME280;34170;54.364;18.582;2023-05-02T07:15:30;99967.97;;;16.13;42.01
48364;BME280;34170;54.364;18.582;2023-05-02T07:17:57;99966.28;;;16.49;41.31
48364;BME280;34170;54.364;18.582;2023-05-02T07:20:25;99963.09;;;16.45;40.52
48364;BME280;34170;54.364;18.582;2023-05-02T07:22:52;99966.88;;;17.30;39.68
48364;BME280;34170;54.364;18.582;2023-05-02T07:25:20;99967.09;;;17.57;39.17
48364;BME280;34170;54.364;18.582;2023-05-02T07:27:47;99967.84;;;17.79;38.79
48364;BME280;34170;54.364;18.582;2023-05-02T07:30:14;99943.50;;;17.99;38.07
48364;BME280;34170;54.364;18.582;2023-05-02T07:32:42;99983.84;;;17.61;39.21
48364;BME280;34170;54.364;18.582;2023-05-02T07:35:09;99990.84;;;18.12;38.02
48364;BME280;34170;54.364;18.582;2023-05-02T07:37:37;99990.84;;;18.12;38.29
48364;BME280;34170;54.364;18.582;2023-05-02T07:40:05;99976.78;;;18.50;37.48
48364;BME280;34170;54.364;18.582;2023-05-02T07:42:34;99959.94;;;18.26;37.40
48364;BME280;34170;54.364;18.582;2023-05-02T07:45:02;99997.31;;;18.52;37.61
48364;BME280;34170;54.364;18.582;2023-05-02T07:47:31;99965.50;;;18.66;36.40
48364;BME280;34170;54.364;18.582;2023-05-02T07:49:58;99999.97;;;19.20;36.41
48364;BME280;34170;54.364;18.582;2023-05-02T07:52:26;99971.88;;;19.33;36.03
48364;BME280;34170;54.364;18.582;2023-05-02T07:54:53;100007.41;;;20.32;34.58
48364;BME280;34170;54.364;18.582;2023-05-02T07:57:21;99987.91;;;21.05;33.17
48364;BME280;34170;54.364;18.582;2023-05-02T07:59:49;100015.66;;;22.03;32.66
48364;BME280;34170;54.364;18.582;2023-05-02T08:02:17;100013.13;;;22.75;31.02
48364;BME280;34170;54.364;18.582;2023-05-02T08:04:46;100018.25;;;24.15;28.75
48364;BME280;34170;54.364;18.582;2023-05-02T08:07:14;100029.16;;;25.71;27.00
48364;BME280;34170;54.364;18.582;2023-05-02T08:09:42;100027.88;;;27.06;25.48
48364;BME280;34170;54.364;18.582;2023-05-02T08:12:09;100025.41;;;27.74;24.62
48364;BME280;34170;54.364;18.582;2023-05-02T08:14:37;100028.59;;;29.24;22.59
48364;BME280;34170;54.364;18.582;2023-05-02T08:17:04;100036.47;;;31.04;20.84
48364;BME280;34170;54.364;18.582;2023-05-02T08:19:31;100026.41;;;32.36;19.25
48364;BME280;34170;54.364;18.582;2023-05-02T08:21:59;100034.72;;;33.88;18.13
48364;BME280;34170;54.364;18.582;2023-05-02T08:24:26;100009.78;;;33.31;18.66
48364;BME280;34170;54.364;18.582;2023-05-02T08:26:54;100023.06;;;34.83;16.82
48364;BME280;34170;54.364;18.582;2023-05-02T08:29:22;100041.09;;;34.99;16.47
48364;BME280;34170;54.364;18.582;2023-05-02T08:31:50;100024.16;;;33.71;17.12
48364;BME280;34170;54.364;18.582;2023-05-02T08:34:17;100016.75;;;32.04;17.36
48364;BME280;34170;54.364;18.582;2023-05-02T08:36:45;100020.00;;;33.35;17.92
48364;BME280;34170;54.364;18.582;2023-05-02T08:39:13;100022.50;;;32.99;17.28
48364;BME280;34170;54.364;18.582;2023-05-02T08:41:40;100045.78;;;34.07;17.45
48364;BME280;34170;54.364;18.582;2023-05-02T08:44:08;100031.41;;;33.72;15.77
48364;BME280;34170;54.364;18.582;2023-05-02T08:46:40;100044.59;;;34.27;16.12
48364;BME280;34170;54.364;18.582;2023-05-02T08:49:14;100029.28;;;33.31;16.33
48364;BME280;34170;54.364;18.582;2023-05-02T08:51:43;100063.84;;;33.30;15.81
48364;BME280;34170;54.364;18.582;2023-05-02T08:54:15;100063.50;;;34.44;15.24
48364;BME280;34170;54.364;18.582;2023-05-02T08:56:43;100062.59;;;33.74;14.35
48364;BME280;34170;54.364;18.582;2023-05-02T08:59:11;100050.78;;;32.68;15.84
48364;BME280;34170;54.364;18.582;2023-05-02T09:01:40;100071.16;;;33.58;15.54
48364;BME280;34170;54.364;18.582;2023-05-02T09:04:10;100069.44;;;35.06;14.58
48364;BME280;34170;54.364;18.582;2023-05-02T09:06:38;100063.19;;;35.91;13.90
48364;BME280;34170;54.364;18.582;2023-05-02T09:09:05;100066.25;;;34.16;14.39
48364;BME280;34170;54.364;18.582;2023-05-02T09:11:35;100068.56;;;33.10;15.47
48364;BME280;34170;54.364;18.582;2023-05-02T09:14:13;100058.81;;;32.45;15.51
48364;BME280;34170;54.364;18.582;2023-05-02T09:16:42;100063.22;;;31.98;15.61
48364;BME280;34170;54.364;18.582;2023-05-02T09:19:09;100079.16;;;33.08;16.05
48364;BME280;34170;54.364;18.582;2023-05-02T09:21:39;100070.06;;;32.35;16.23
48364;BME280;34170;54.364;18.582;2023-05-02T09:24:20;100083.41;;;33.05;15.94
48364;BME280;34170;54.364;18.582;2023-05-02T09:26:59;100078.34;;;32.40;15.90
48364;BME280;34170;54.364;18.582;2023-05-02T09:29:30;100091.38;;;31.62;17.44
48364;BME280;34170;54.364;18.582;2023-05-02T09:32:03;100103.34;;;31.87;17.69
48364;BME280;34170;54.364;18.582;2023-05-02T09:34:31;100099.78;;;29.70;18.85
48364;BME280;34170;54.364;18.582;2023-05-02T09:36:59;100104.13;;;27.39;22.77
48364;BME280;34170;54.364;18.582;2023-05-02T09:39:27;100106.06;;;28.46;20.85
48364;BME280;34170;54.364;18.582;2023-05-02T09:41:58;100115.19;;;27.17;21.54
48364;BME280;34170;54.364;18.582;2023-05-02T09:44:26;100085.06;;;25.54;23.61
48364;BME280;34170;54.364;18.582;2023-05-02T09:46:55;100106.44;;;25.06;25.10
48364;BME280;34170;54.364;18.582;2023-05-02T09:49:43;100101.19;;;23.28;27.88
48364;BME280;34170;54.364;18.582;2023-05-02T09:52:14;100120.69;;;22.71;30.29
48364;BME280;34170;54.364;18.582;2023-05-02T09:54:43;100131.66;;;21.83;32.23
48364;BME280;34170;54.364;18.582;2023-05-02T09:57:13;100140.56;;;21.40;33.47
48364;BME280;34170;54.364;18.582;2023-05-02T09:59:40;100125.03;;;21.34;33.64
48364;BME280;34170;54.364;18.582;2023-05-02T10:02:08;100134.31;;;20.94;35.93
48364;BME280;34170;54.364;18.582;2023-05-02T10:04:38;100150.16;;;20.59;36.08
48364;BME280;34170;54.364;18.582;2023-05-02T10:07:08;100149.78;;;20.62;36.90
48364;BME280;34170;54.364;18.582;2023-05-02T10:09:42;100132.00;;;21.30;35.75
48364;BME280;34170;54.364;18.582;2023-05-02T10:12:13;100141.38;;;21.47;35.86
48364;BME280;34170;54.364;18.582;2023-05-02T10:14:48;100137.19;;;21.77;35.90
48364;BME280;34170;54.364;18.582;2023-05-02T10:17:29;100156.19;;;22.84;34.23
48364;BME280;34170;54.364;18.582;2023-05-02T10:20:03;100170.28;;;23.67;33.23
48364;BME280;34170;54.364;18.582;2023-05-02T10:22:35;100171.56;;;25.29;30.82
48364;BME280;34170;54.364;18.582;2023-05-02T10:25:02;100190.00;;;24.53;31.85
48364;BME280;34170;54.364;18.582;2023-05-02T10:27:31;100190.59;;;24.43;32.32
48364;BME280;34170;54.364;18.582;2023-05-02T10:29:59;100169.63;;;25.42;31.01
48364;BME280;34170;54.364;18.582;2023-05-02T10:32:28;100190.03;;;25.75;30.27
48364;BME280;34170;54.364;18.582;2023-05-02T10:34:56;100190.63;;;25.48;30.64
48364;BME280;34170;54.364;18.582;2023-05-02T10:37:25;100188.97;;;25.47;30.82
48364;BME280;34170;54.364;18.582;2023-05-02T10:39:54;100172.78;;;24.69;31.52
48364;BME280;34170;54.364;18.582;2023-05-02T10:42:21;100197.72;;;23.67;33.29
48364;BME280;34170;54.364;18.582;2023-05-02T10:44:49;100191.44;;;23.48;33.75
48364;BME280;34170;54.364;18.582;2023-05-02T10:49:51;100205.31;;;22.42;35.48
48364;BME280;34170;54.364;18.582;2023-05-02T10:52:37;100204.78;;;22.01;36.73
48364;BME280;34170;54.364;18.582;2023-05-02T11:00:27;100196.66;;;22.45;36.26
48364;BME280;34170;54.364;18.582;2023-05-02T11:02:56;100222.84;;;22.09;36.69
48364;BME280;34170;54.364;18.582;2023-05-02T11:05:24;100210.47;;;21.29;38.32
48364;BME280;34170;54.364;18.582;2023-05-02T11:10:42;100217.66;;;22.51;36.18
48364;BME280;34170;54.364;18.582;2023-05-02T11:13:12;100231.00;;;22.16;36.47
48364;BME280;34170;54.364;18.582;2023-05-02T11:18:09;100262.59;;;20.29;40.69
48364;BME280;34170;54.364;18.582;2023-05-02T11:20:40;100245.75;;;19.86;41.66
48364;BME280;34170;54.364;18.582;2023-05-02T11:25:47;100257.50;;;19.31;44.35
48364;BME280;34170;54.364;18.582;2023-05-02T11:31:00;100254.56;;;18.06;47.51
48364;BME280;34170;54.364;18.582;2023-05-02T11:33:28;100274.16;;;18.73;47.20
48364;BME280;34170;54.364;18.582;2023-05-02T11:35:55;100278.78;;;18.79;46.71
48364;BME280;34170;54.364;18.582;2023-05-02T11:38:25;100285.03;;;18.45;48.63
48364;BME280;34170;54.364;18.582;2023-05-02T11:41:02;100287.00;;;18.58;48.26
48364;BME280;34170;54.364;18.582;2023-05-02T11:43:30;100297.28;;;18.34;50.01
48364;BME280;34170;54.364;18.582;2023-05-02T11:45:59;100296.13;;;18.22;50.48
48364;BME280;34170;54.364;18.582;2023-05-02T11:48:29;100319.63;;;17.86;51.45
48364;BME280;34170;54.364;18.582;2023-05-02T11:50:59;100325.88;;;18.02;51.65
48364;BME280;34170;54.364;18.582;2023-05-02T11:53:31;100342.22;;;17.36;54.40
48364;BME280;34170;54.364;18.582;2023-05-02T11:56:02;100347.44;;;17.22;55.71
48364;BME280;34170;54.364;18.582;2023-05-02T11:58:31;100369.81;;;16.56;58.20
48364;BME280;34170;54.364;18.582;2023-05-02T12:01:13;100361.97;;;15.84;62.60
48364;BME280;34170;54.364;18.582;2023-05-02T12:03:42;100368.53;;;16.44;60.60
48364;BME280;34170;54.364;18.582;2023-05-02T12:06:13;100377.81;;;16.50;60.03
48364;BME280;34170;54.364;18.582;2023-05-02T12:08:42;100360.09;;;16.77;58.55
48364;BME280;34170;54.364;18.582;2023-05-02T12:11:14;100376.59;;;16.29;62.30
48364;BME280;34170;54.364;18.582;2023-05-02T12:13:44;100376.97;;;16.95;58.97
48364;BME280;34170;54.364;18.582;2023-05-02T12:16:13;100393.97;;;16.89;59.25
48364;BME280;34170;54.364;18.582;2023-05-02T12:18:41;100392.50;;;17.17;57.61
48364;BME280;34170;54.364;18.582;2023-05-02T12:21:09;100409.88;;;17.45;56.39
48364;BME280;34170;54.364;18.582;2023-05-02T12:23:38;100389.81;;;17.31;56.21
48364;BME280;34170;54.364;18.582;2023-05-02T12:26:16;100397.03;;;17.39;57.55
48364;BME280;34170;54.364;18.582;2023-05-02T12:28:49;100409.59;;;16.41;59.26
48364;BME280;34170;54.364;18.582;2023-05-02T12:31:17;100424.44;;;17.00;58.76
48364;BME280;34170;54.364;18.582;2023-05-02T12:33:45;100427.41;;;17.28;56.31
48364;BME280;34170;54.364;18.582;2023-05-02T12:36:18;100408.06;;;17.08;57.58
48364;BME280;34170;54.364;18.582;2023-05-02T12:38:53;100434.38;;;16.38;59.16
48364;BME280;34170;54.364;18.582;2023-05-02T12:41:37;100424.44;;;16.30;60.09
48364;BME280;34170;54.364;18.582;2023-05-02T12:44:05;100426.38;;;15.90;61.11
48364;BME280;34170;54.364;18.582;2023-05-02T12:46:34;100432.56;;;16.30;58.24
48364;BME280;34170;54.364;18.582;2023-05-02T12:49:06;100455.66;;;17.04;55.33
48364;BME280;34170;54.364;18.582;2023-05-02T12:51:39;100407.09;;;15.77;55.31
48364;BME280;34170;54.364;18.582;2023-05-02T12:54:07;100425.22;;;15.68;57.05
48364;BME280;34170;54.364;18.582;2023-05-02T12:56:38;100460.44;;;17.17;54.05
48364;BME280;34170;54.364;18.582;2023-05-02T12:59:07;100458.78;;;17.15;53.28
48364;BME280;34170;54.364;18.582;2023-05-02T13:01:34;100465.53;;;16.73;54.20
48364;BME280;34170;54.364;18.582;2023-05-02T13:04:02;100475.38;;;16.20;56.05
48364;BME280;34170;54.364;18.582;2023-05-02T13:06:30;100483.31;;;15.90;57.85
48364;BME280;34170;54.364;18.582;2023-05-02T13:08:57;100474.19;;;15.67;57.79
48364;BME280;34170;54.364;18.582;2023-05-02T13:11:25;100487.63;;;15.52;56.98
48364;BME280;34170;54.364;18.582;2023-05-02T13:13:52;100497.75;;;15.66;56.43
48364;BME280;34170;54.364;18.582;2023-05-02T13:16:20;100497.06;;;15.72;55.28
48364;BME280;34170;54.364;18.582;2023-05-02T13:18:48;100497.44;;;15.77;54.08
48364;BME280;34170;54.364;18.582;2023-05-02T13:21:15;100507.22;;;15.70;54.57
48364;BME280;34170;54.364;18.582;2023-05-02T13:23:46;100495.66;;;16.01;53.18
48364;BME280;34170;54.364;18.582;2023-05-02T13:26:13;100518.66;;;16.13;53.90
48364;BME280;34170;54.364;18.582;2023-05-02T13:28:41;100475.94;;;16.07;53.93
48364;BME280;34170;54.364;18.582;2023-05-02T13:31:08;100515.81;;;16.38;53.12
48364;BME280;34170;54.364;18.582;2023-05-02T13:33:36;100522.03;;;16.78;50.12